sensor_id;sensor_type;location;lat;lon;timestamp;temperature;humidity
18141;DHT22;9196;49.194;12.526;2023-12-29T00:00:05;8.30;99.90
18141;DHT22;9196;49.194;12.526;2023-12-29T00:02:32;8.30;99.90
18141;DHT22;9196;49.194;12.526;2023-12-29T00:04:59;8.30;99.90
18141;DHT22;9196;49.194;12.526;2023-12-29T00:07:27;8.30;99.90
18141;DHT22;9196;49.194;12.526;2023-12-29T00:09:54;8.30;99.90
18141;DHT22;9196;49.194;12.526;2023-12-29T00:12:20;8.30;99.90
18141;DHT22;9196;49.194;12.526;2023-12-29T00:14:47;8.40;99.90
18141;DHT22;9196;49.194;12.526;2023-12-29T00:17:14;8.30;99.90
18141;DHT22;9196;49.194;12.526;2023-12-29T00:19:41;8.30;99.90
18141;DHT22;9196;49.194;12.526;2023-12-29T00:22:07;8.20;99.90
18141;DHT22;9196;49.194;12.526;2023-12-29T00:24:36;8.20;99.90
18141;DHT22;9196;49.194;12.526;2023-12-29T00:27:04;8.20;99.90
18141;DHT22;9196;49.194;12.526;2023-12-29T00:29:31;8.20;99.90
18141;DHT22;9196;49.194;12.526;2023-12-29T00:31:58;8.20;99.90
18141;DHT22;9196;49.194;12.526;2023-12-29T00:34:25;8.20;99.90
18141;DHT22;9196;49.194;12.526;2023-12-29T00:36:52;8.20;99.90
18141;DHT22;9196;49.194;12.526;2023-12-29T00:39:19;8.20;99.90
18141;DHT22;9196;49.194;12.526;2023-12-29T00:41:55;8.20;99.90
18141;DHT22;9196;49.194;12.526;2023-12-29T00:44:22;8.20;99.90
18141;DHT22;9196;49.194;12.526;2023-12-29T00:46:49;8.20;99.90
18141;DHT22;9196;49.194;12.526;2023-12-29T00:49:16;8.20;99.90
18141;DHT22;9196;49.194;12.526;2023-12-29T00:51:43;8.20;99.90
18141;DHT22;9196;49.194;12.526;2023-12-29T00:54:10;8.10;99.90
18141;DHT22;9196;49.194;12.526;2023-12-29T00:56:37;8.10;99.90
18141;DHT22;9196;49.194;12.526;2023-12-29T00:59:05;8.10;99.90
18141;DHT22;9196;49.194;12.526;2023-12-29T01:01:33;8.00;99.90
18141;DHT22;9196;49.194;12.526;2023-12-29T01:04:01;8.00;99.90
18141;DHT22;9196;49.194;12.526;2023-12-29T01:06:27;8.00;99.90
18141;DHT22;9196;49.194;12.526;2023-12-29T01:08:54;8.10;99.90
18141;DHT22;9196;49.194;12.526;2023-12-29T01:11:21;8.00;99.90
18141;DHT22;9196;49.194;12.526;2023-12-29T01:13:48;8.00;99.90
18141;DHT22;9196;49.194;12.526;2023-12-29T01:16:16;8.00;99.90
18141;DHT22;9196;49.194;12.526;2023-12-29T01:18:43;8.10;99.90
18141;DHT22;9196;49.194;12.526;2023-12-29T01:21:10;8.10;99.90
18141;DHT22;9196;49.194;12.526;2023-12-29T01:23:37;8.10;99.90
18141;DHT22;9196;49.194;12.526;2023-12-29T01:26:04;8.10;99.90
18141;DHT22;9196;49.194;12.526;2023-12-29T01:28:30;8.10;99.90
18141;DHT22;9196;49.194;12.526;2023-12-29T01:30:57;8.20;99.90
18141;DHT22;9196;49.194;12.526;2023-12-29T01:33:25;8.20;99.90
18141;DHT22;9196;49.194;12.526;2023-12-29T01:35:53;8.20;99.90
18141;DHT22;9196;49.194;12.526;2023-12-29T01:38:20;8.20;99.90
18141;DHT22;9196;49.194;12.526;2023-12-29T01:40:47;8.20;99.90
18141;DHT22;9196;49.194;12.526;2023-12-29T01:43:14;8.30;99.90
18141;DHT22;9196;49.194;12.526;2023-12-29T01:45:41;8.30;99.90
18141;DHT22;9196;49.194;12.526;2023-12-29T01:48:08;8.30;99.90
18141;DHT22;9196;49.194;12.526;2023-12-29T01:50:36;8.20;99.90
18141;DHT22;9196;49.194;12.526;2023-12-29T01:53:04;8.20;99.90
18141;DHT22;9196;49.194;12.526;2023-12-29T01:55:32;8.20;99.90
18141;DHT22;9196;49.194;12.526;2023-12-29T01:57:59;8.20;99.90
18141;DHT22;9196;49.194;12.526;2023-12-29T02:00:27;8.30;99.90
18141;DHT22;9196;49.194;12.526;2023-12-29T02:02:54;8.30;99.90
18141;DHT22;9196;49.194;12.526;2023-12-29T02:05:23;8.30;99.90
18141;DHT22;9196;49.194;12.526;2023-12-29T02:07:52;8.30;99.90
18141;DHT22;9196;49.194;12.526;2023-12-29T02:10:19;8.30;99.90
18141;DHT22;9196;49.194;12.526;2023-12-29T02:12:47;8.30;99.90
18141;DHT22;9196;49.194;12.526;2023-12-29T02:15:14;8.40;99.90
18141;DHT22;9196;49.194;12.526;2023-12-29T02:17:45;8.40;99.90
18141;DHT22;9196;49.194;12.526;2023-12-29T02:20:12;8.50;99.90
18141;DHT22;9196;49.194;12.526;2023-12-29T02:22:39;8.60;99.90
18141;DHT22;9196;49.194;12.526;2023-12-29T02:25:08;8.60;99.90
18141;DHT22;9196;49.194;12.526;2023-12-29T02:27:43;8.60;99.90
18141;DHT22;9196;49.194;12.526;2023-12-29T02:30:24;8.70;99.90
18141;DHT22;9196;49.194;12.526;2023-12-29T02:32:55;8.60;99.90
18141;DHT22;9196;49.194;12.526;2023-12-29T02:35:25;8.70;99.90
18141;DHT22;9196;49.194;12.526;2023-12-29T02:37:54;8.80;99.90
18141;DHT22;9196;49.194;12.526;2023-12-29T02:40:22;8.80;99.90
18141;DHT22;9196;49.194;12.526;2023-12-29T02:42:49;8.80;99.90
18141;DHT22;9196;49.194;12.526;2023-12-29T02:45:17;8.80;99.90
18141;DHT22;9196;49.194;12.526;2023-12-29T02:47:44;8.80;99.90
18141;DHT22;9196;49.194;12.526;2023-12-29T02:50:12;8.80;99.90
18141;DHT22;9196;49.194;12.526;2023-12-29T02:52:38;8.80;99.90
18141;DHT22;9196;49.194;12.526;2023-12-29T02:55:05;8.80;99.90
18141;DHT22;9196;49.194;12.526;2023-12-29T02:57:34;8.80;99.90
18141;DHT22;9196;49.194;12.526;2023-12-29T03:00:01;8.70;99.90
18141;DHT22;9196;49.194;12.526;2023-12-29T03:02:29;8.60;99.90
18141;DHT22;9196;49.194;12.526;2023-12-29T03:04:56;8.80;99.90
18141;DHT22;9196;49.194;12.526;2023-12-29T03:07:23;8.70;99.90
18141;DHT22;9196;49.194;12.526;2023-12-29T03:09:49;8.70;99.90
18141;DHT22;9196;49.194;12.526;2023-12-29T03:12:16;8.70;99.90
18141;DHT22;9196;49.194;12.526;2023-12-29T03:14:45;8.70;99.90
18141;DHT22;9196;49.194;12.526;2023-12-29T03:17:13;8.70;99.90
18141;DHT22;9196;49.194;12.526;2023-12-29T03:19:40;8.80;99.90
18141;DHT22;9196;49.194;12.526;2023-12-29T03:22:06;8.70;99.90
18141;DHT22;9196;49.194;12.526;2023-12-29T03:24:34;8.70;99.90
18141;DHT22;9196;49.194;12.526;2023-12-29T03:27:01;8.70;99.90
18141;DHT22;9196;49.194;12.526;2023-12-29T03:29:27;8.80;99.90
18141;DHT22;9196;49.194;12.526;2023-12-29T03:31:55;8.80;99.90
18141;DHT22;9196;49.194;12.526;2023-12-29T03:34:22;8.80;99.90
18141;DHT22;9196;49.194;12.526;2023-12-29T03:36:49;8.80;99.90
18141;DHT22;9196;49.194;12.526;2023-12-29T03:39:16;8.80;99.90
18141;DHT22;9196;49.194;12.526;2023-12-29T03:41:42;8.80;99.90
18141;DHT22;9196;49.194;12.526;2023-12-29T03:44:09;8.90;99.90
18141;DHT22;9196;49.194;12.526;2023-12-29T03:46:36;8.80;99.90
18141;DHT22;9196;49.194;12.526;2023-12-29T03:49:04;8.80;99.90
18141;DHT22;9196;49.194;12.526;2023-12-29T03:51:31;8.80;99.90
18141;DHT22;9196;49.194;12.526;2023-12-29T03:53:58;8.80;99.90
18141;DHT22;9196;49.194;12.526;2023-12-29T03:56:25;8.70;99.90
18141;DHT22;9196;49.194;12.526;2023-12-29T03:58:51;8.70;99.90
18141;DHT22;9196;49.194;12.526;2023-12-29T04:01:18;8.70;99.90
18141;DHT22;9196;49.194;12.526;2023-12-29T04:03:45;8.70;99.90
18141;DHT22;9196;49.194;12.526;2023-12-29T04:06:14;8.80;99.90
18141;DHT22;9196;49.194;12.526;2023-12-29T04:08:41;8.70;99.90
18141;DHT22;9196;49.194;12.526;2023-12-29T04:11:07;8.70;99.90
18141;DHT22;9196;49.194;12.526;2023-12-29T04:13:35;8.60;99.90
18141;DHT22;9196;49.194;12.526;2023-12-29T04:16:02;8.60;99.90
18141;DHT22;9196;49.194;12.526;2023-12-29T04:18:29;8.60;99.90
18141;DHT22;9196;49.194;12.526;2023-12-29T04:20:56;8.50;99.90
18141;DHT22;9196;49.194;12.526;2023-12-29T04:23:24;8.40;99.90
18141;DHT22;9196;49.194;12.526;2023-12-29T04:25:51;8.40;99.90
18141;DHT22;9196;49.194;12.526;2023-12-29T04:28:18;8.40;99.90
18141;DHT22;9196;49.194;12.526;2023-12-29T04:30:45;8.30;99.90
18141;DHT22;9196;49.194;12.526;2023-12-29T04:33:11;8.20;99.90
18141;DHT22;9196;49.194;12.526;2023-12-29T04:35:38;8.20;99.90
18141;DHT22;9196;49.194;12.526;2023-12-29T04:38:05;8.20;99.90
18141;DHT22;9196;49.194;12.526;2023-12-29T04:40:33;8.10;99.90
18141;DHT22;9196;49.194;12.526;2023-12-29T04:43:00;8.10;99.90
18141;DHT22;9196;49.194;12.526;2023-12-29T04:45:27;8.00;99.90
18141;DHT22;9196;49.194;12.526;2023-12-29T04:47:54;8.00;99.90
18141;DHT22;9196;49.194;12.526;2023-12-29T04:50:21;8.10;99.90
18141;DHT22;9196;49.194;12.526;2023-12-29T04:52:48;8.00;99.90
18141;DHT22;9196;49.194;12.526;2023-12-29T04:55:15;8.10;99.90
18141;DHT22;9196;49.194;12.526;2023-12-29T04:57:43;8.10;99.90
18141;DHT22;9196;49.194;12.526;2023-12-29T05:00:11;8.10;99.90
18141;DHT22;9196;49.194;12.526;2023-12-29T05:02:38;8.10;99.90
18141;DHT22;9196;49.194;12.526;2023-12-29T05:05:05;8.00;99.90
18141;DHT22;9196;49.194;12.526;2023-12-29T05:07:32;8.00;99.90
18141;DHT22;9196;49.194;12.526;2023-12-29T05:09:59;8.00;99.90
18141;DHT22;9196;49.194;12.526;2023-12-29T05:12:26;8.00;99.90
18141;DHT22;9196;49.194;12.526;2023-12-29T05:14:54;8.10;99.90
18141;DHT22;9196;49.194;12.526;2023-12-29T05:17:21;8.00;99.90
18141;DHT22;9196;49.194;12.526;2023-12-29T05:19:47;8.00;99.90
18141;DHT22;9196;49.194;12.526;2023-12-29T05:22:14;7.90;99.90
18141;DHT22;9196;49.194;12.526;2023-12-29T05:24:43;7.90;99.90
18141;DHT22;9196;49.194;12.526;2023-12-29T05:27:10;7.80;99.90
18141;DHT22;9196;49.194;12.526;2023-12-29T05:29:37;7.80;99.90
18141;DHT22;9196;49.194;12.526;2023-12-29T05:32:06;7.70;99.90
18141;DHT22;9196;49.194;12.526;2023-12-29T05:34:34;7.60;99.90
18141;DHT22;9196;49.194;12.526;2023-12-29T05:37:00;7.60;99.90
18141;DHT22;9196;49.194;12.526;2023-12-29T05:39:27;7.70;99.90
18141;DHT22;9196;49.194;12.526;2023-12-29T05:41:54;7.70;99.90
18141;DHT22;9196;49.194;12.526;2023-12-29T05:44:21;7.70;99.90
18141;DHT22;9196;49.194;12.526;2023-12-29T05:46:48;7.60;99.90
18141;DHT22;9196;49.194;12.526;2023-12-29T05:49:16;7.50;99.90
18141;DHT22;9196;49.194;12.526;2023-12-29T05:51:43;7.60;99.90
18141;DHT22;9196;49.194;12.526;2023-12-29T05:54:10;7.60;99.90
18141;DHT22;9196;49.194;12.526;2023-12-29T05:56:37;7.60;99.90
18141;DHT22;9196;49.194;12.526;2023-12-29T05:59:04;7.60;99.90
18141;DHT22;9196;49.194;12.526;2023-12-29T06:01:31;7.60;99.90
18141;DHT22;9196;49.194;12.526;2023-12-29T06:03:57;7.60;99.90
18141;DHT22;9196;49.194;12.526;2023-12-29T06:06:26;7.50;99.90
18141;DHT22;9196;49.194;12.526;2023-12-29T06:08:52;7.50;99.90
18141;DHT22;9196;49.194;12.526;2023-12-29T06:11:19;7.60;99.90
18141;DHT22;9196;49.194;12.526;2023-12-29T06:13:46;7.60;99.90
18141;DHT22;9196;49.194;12.526;2023-12-29T06:16:17;7.70;99.90
18141;DHT22;9196;49.194;12.526;2023-12-29T06:18:44;7.60;99.90
18141;DHT22;9196;49.194;12.526;2023-12-29T06:21:11;7.50;99.90
18141;DHT22;9196;49.194;12.526;2023-12-29T06:23:39;7.50;99.90
18141;DHT22;9196;49.194;12.526;2023-12-29T06:26:13;7.40;99.90
18141;DHT22;9196;49.194;12.526;2023-12-29T06:28:40;7.50;99.90
18141;DHT22;9196;49.194;12.526;2023-12-29T06:31:07;7.50;99.90
18141;DHT22;9196;49.194;12.526;2023-12-29T06:33:34;7.50;99.90
18141;DHT22;9196;49.194;12.526;2023-12-29T06:36:01;7.50;99.90
18141;DHT22;9196;49.194;12.526;2023-12-29T06:38:28;7.70;99.90
18141;DHT22;9196;49.194;12.526;2023-12-29T06:40:56;7.70;99.90
18141;DHT22;9196;49.194;12.526;2023-12-29T06:43:23;7.80;99.90
18141;DHT22;9196;49.194;12.526;2023-12-29T06:45:50;7.80;99.90
18141;DHT22;9196;49.194;12.526;2023-12-29T06:48:17;7.90;99.90
18141;DHT22;9196;49.194;12.526;2023-12-29T06:50:43;7.80;99.90
18141;DHT22;9196;49.194;12.526;2023-12-29T06:53:10;7.90;99.90
18141;DHT22;9196;49.194;12.526;2023-12-29T06:55:37;8.00;99.90
18141;DHT22;9196;49.194;12.526;2023-12-29T06:58:05;7.90;99.90
18141;DHT22;9196;49.194;12.526;2023-12-29T07:00:32;8.00;99.90
18141;DHT22;9196;49.194;12.526;2023-12-29T07:03:00;8.00;99.90
18141;DHT22;9196;49.194;12.526;2023-12-29T07:05:27;8.00;99.90
18141;DHT22;9196;49.194;12.526;2023-12-29T07:07:54;8.00;99.90
18141;DHT22;9196;49.194;12.526;2023-12-29T07:10:21;8.10;99.90
18141;DHT22;9196;49.194;12.526;2023-12-29T07:12:48;8.00;99.90
18141;DHT22;9196;49.194;12.526;2023-12-29T07:15:16;8.00;99.90
18141;DHT22;9196;49.194;12.526;2023-12-29T07:17:43;8.00;99.90
18141;DHT22;9196;49.194;12.526;2023-12-29T07:20:10;7.90;99.90
18141;DHT22;9196;49.194;12.526;2023-12-29T07:22:37;7.90;99.90
18141;DHT22;9196;49.194;12.526;2023-12-29T07:25:04;7.80;99.90
18141;DHT22;9196;49.194;12.526;2023-12-29T07:27:31;7.80;99.90
18141;DHT22;9196;49.194;12.526;2023-12-29T07:29:57;7.80;99.90
18141;DHT22;9196;49.194;12.526;2023-12-29T07:32:25;7.80;99.90
18141;DHT22;9196;49.194;12.526;2023-12-29T07:34:52;7.70;99.90
18141;DHT22;9196;49.194;12.526;2023-12-29T07:37:19;7.70;99.90
18141;DHT22;9196;49.194;12.526;2023-12-29T07:39:46;7.80;99.90
18141;DHT22;9196;49.194;12.526;2023-12-29T07:42:13;7.70;99.90
18141;DHT22;9196;49.194;12.526;2023-12-29T07:44:42;7.70;99.90
18141;DHT22;9196;49.194;12.526;2023-12-29T07:47:09;7.70;99.90
18141;DHT22;9196;49.194;12.526;2023-12-29T07:49:38;7.70;99.90
18141;DHT22;9196;49.194;12.526;2023-12-29T07:52:07;7.70;99.90
18141;DHT22;9196;49.194;12.526;2023-12-29T07:54:34;7.70;99.90
18141;DHT22;9196;49.194;12.526;2023-12-29T07:57:01;7.90;99.90
18141;DHT22;9196;49.194;12.526;2023-12-29T07:59:28;8.00;99.90
18141;DHT22;9196;49.194;12.526;2023-12-29T08:01:54;7.90;99.90
18141;DHT22;9196;49.194;12.526;2023-12-29T08:04:23;7.90;99.90
18141;DHT22;9196;49.194;12.526;2023-12-29T08:06:51;7.90;99.90
18141;DHT22;9196;49.194;12.526;2023-12-29T08:09:18;8.00;99.90
18141;DHT22;9196;49.194;12.526;2023-12-29T08:11:45;8.10;99.90
18141;DHT22;9196;49.194;12.526;2023-12-29T08:14:12;8.30;99.90
18141;DHT22;9196;49.194;12.526;2023-12-29T08:16:39;8.40;99.90
18141;DHT22;9196;49.194;12.526;2023-12-29T08:19:06;8.40;99.90
18141;DHT22;9196;49.194;12.526;2023-12-29T08:21:35;8.40;99.90
18141;DHT22;9196;49.194;12.526;2023-12-29T08:24:04;8.50;99.90
18141;DHT22;9196;49.194;12.526;2023-12-29T08:26:31;8.60;99.90
18141;DHT22;9196;49.194;12.526;2023-12-29T08:28:58;8.60;99.90
18141;DHT22;9196;49.194;12.526;2023-12-29T08:31:24;8.60;99.90
18141;DHT22;9196;49.194;12.526;2023-12-29T08:33:52;8.60;99.90
18141;DHT22;9196;49.194;12.526;2023-12-29T08:36:20;8.50;99.90
18141;DHT22;9196;49.194;12.526;2023-12-29T08:38:47;8.60;99.90
18141;DHT22;9196;49.194;12.526;2023-12-29T08:41:16;8.70;99.90
18141;DHT22;9196;49.194;12.526;2023-12-29T08:43:43;8.70;99.90
18141;DHT22;9196;49.194;12.526;2023-12-29T08:46:10;8.80;99.90
18141;DHT22;9196;49.194;12.526;2023-12-29T08:48:37;8.90;99.90
18141;DHT22;9196;49.194;12.526;2023-12-29T08:51:04;9.00;99.90
18141;DHT22;9196;49.194;12.526;2023-12-29T08:53:31;9.00;99.90
18141;DHT22;9196;49.194;12.526;2023-12-29T08:56:01;9.00;99.90
18141;DHT22;9196;49.194;12.526;2023-12-29T08:58:29;9.00;99.90
18141;DHT22;9196;49.194;12.526;2023-12-29T09:00:56;9.10;99.90
18141;DHT22;9196;49.194;12.526;2023-12-29T09:03:23;9.10;99.90
18141;DHT22;9196;49.194;12.526;2023-12-29T09:05:50;9.10;99.90
18141;DHT22;9196;49.194;12.526;2023-12-29T09:08:16;9.20;99.90
18141;DHT22;9196;49.194;12.526;2023-12-29T09:10:43;9.20;99.90
18141;DHT22;9196;49.194;12.526;2023-12-29T09:13:10;9.30;99.90
18141;DHT22;9196;49.194;12.526;2023-12-29T09:15:38;9.30;99.90
18141;DHT22;9196;49.194;12.526;2023-12-29T09:18:05;9.20;99.90
18141;DHT22;9196;49.194;12.526;2023-12-29T09:20:32;9.20;99.90
18141;DHT22;9196;49.194;12.526;2023-12-29T09:22:59;9.20;99.90
18141;DHT22;9196;49.194;12.526;2023-12-29T09:25:26;9.10;99.90
18141;DHT22;9196;49.194;12.526;2023-12-29T09:27:53;9.10;99.90
18141;DHT22;9196;49.194;12.526;2023-12-29T09:30:20;9.20;99.90
18141;DHT22;9196;49.194;12.526;2023-12-29T09:32:48;9.20;99.90
18141;DHT22;9196;49.194;12.526;2023-12-29T09:35:15;9.20;99.90
18141;DHT22;9196;49.194;12.526;2023-12-29T09:37:42;9.20;99.90
18141;DHT22;9196;49.194;12.526;2023-12-29T09:40:10;9.20;99.90
18141;DHT22;9196;49.194;12.526;2023-12-29T09:42:38;9.30;99.90
18141;DHT22;9196;49.194;12.526;2023-12-29T09:45:09;9.40;99.90
18141;DHT22;9196;49.194;12.526;2023-12-29T09:47:38;9.60;99.90
18141;DHT22;9196;49.194;12.526;2023-12-29T09:50:10;9.70;99.90
18141;DHT22;9196;49.194;12.526;2023-12-29T09:52:38;9.70;99.90
18141;DHT22;9196;49.194;12.526;2023-12-29T09:55:08;9.80;99.90
18141;DHT22;9196;49.194;12.526;2023-12-29T09:57:36;9.90;99.90
18141;DHT22;9196;49.194;12.526;2023-12-29T10:00:04;10.00;99.90
18141;DHT22;9196;49.194;12.526;2023-12-29T10:02:31;10.10;99.90
18141;DHT22;9196;49.194;12.526;2023-12-29T10:05:01;10.10;99.90
18141;DHT22;9196;49.194;12.526;2023-12-29T10:07:32;10.20;99.90
18141;DHT22;9196;49.194;12.526;2023-12-29T10:10:02;10.20;99.90
18141;DHT22;9196;49.194;12.526;2023-12-29T10:12:32;10.20;99.90
18141;DHT22;9196;49.194;12.526;2023-12-29T10:15:05;10.30;99.90
18141;DHT22;9196;49.194;12.526;2023-12-29T10:17:41;10.30;99.90
18141;DHT22;9196;49.194;12.526;2023-12-29T10:20:16;10.30;99.90
18141;DHT22;9196;49.194;12.526;2023-12-29T10:22:51;10.30;99.90
18141;DHT22;9196;49.194;12.526;2023-12-29T10:25:22;10.30;99.90
18141;DHT22;9196;49.194;12.526;2023-12-29T10:27:50;10.30;99.90
18141;DHT22;9196;49.194;12.526;2023-12-29T10:30:18;10.30;99.90
18141;DHT22;9196;49.194;12.526;2023-12-29T10:32:49;10.20;99.90
18141;DHT22;9196;49.194;12.526;2023-12-29T10:35:16;10.10;99.90
18141;DHT22;9196;49.194;12.526;2023-12-29T10:37:43;10.10;99.90
18141;DHT22;9196;49.194;12.526;2023-12-29T10:40:17;10.10;99.90
18141;DHT22;9196;49.194;12.526;2023-12-29T10:42:52;10.00;99.90
18141;DHT22;9196;49.194;12.526;2023-12-29T10:45:19;10.00;99.90
18141;DHT22;9196;49.194;12.526;2023-12-29T10:47:46;10.00;99.90
18141;DHT22;9196;49.194;12.526;2023-12-29T10:50:13;9.90;99.90
18141;DHT22;9196;49.194;12.526;2023-12-29T10:52:40;9.90;99.90
18141;DHT22;9196;49.194;12.526;2023-12-29T10:55:08;9.90;99.90
18141;DHT22;9196;49.194;12.526;2023-12-29T10:57:38;9.90;99.90
18141;DHT22;9196;49.194;12.526;2023-12-29T11:00:06;9.80;99.90
18141;DHT22;9196;49.194;12.526;2023-12-29T11:02:33;9.80;99.90
18141;DHT22;9196;49.194;12.526;2023-12-29T11:05:05;9.80;99.90
18141;DHT22;9196;49.194;12.526;2023-12-29T11:07:33;9.80;99.90
18141;DHT22;9196;49.194;12.526;2023-12-29T11:10:01;9.90;99.90
18141;DHT22;9196;49.194;12.526;2023-12-29T11:12:31;9.80;99.90
18141;DHT22;9196;49.194;12.526;2023-12-29T11:15:15;9.80;99.90
18141;DHT22;9196;49.194;12.526;2023-12-29T11:17:43;9.70;99.90
18141;DHT22;9196;49.194;12.526;2023-12-29T11:20:15;9.80;99.90
18141;DHT22;9196;49.194;12.526;2023-12-29T11:22:43;9.80;99.90
18141;DHT22;9196;49.194;12.526;2023-12-29T11:25:10;9.90;99.90
18141;DHT22;9196;49.194;12.526;2023-12-29T11:27:38;10.00;99.90
18141;DHT22;9196;49.194;12.526;2023-12-29T11:30:07;10.10;99.90
18141;DHT22;9196;49.194;12.526;2023-12-29T11:32:41;10.10;99.90
18141;DHT22;9196;49.194;12.526;2023-12-29T11:35:17;10.10;99.90
18141;DHT22;9196;49.194;12.526;2023-12-29T11:37:58;10.00;99.90
18141;DHT22;9196;49.194;12.526;2023-12-29T11:40:30;10.00;99.90
18141;DHT22;9196;49.194;12.526;2023-12-29T11:43:05;10.00;99.90
18141;DHT22;9196;49.194;12.526;2023-12-29T11:45:36;10.00;99.90
18141;DHT22;9196;49.194;12.526;2023-12-29T11:48:05;10.10;99.90
18141;DHT22;9196;49.194;12.526;2023-12-29T11:50:35;10.10;99.90
18141;DHT22;9196;49.194;12.526;2023-12-29T11:53:03;10.10;99.90
18141;DHT22;9196;49.194;12.526;2023-12-29T11:55:30;10.20;99.90
18141;DHT22;9196;49.194;12.526;2023-12-29T11:57:58;10.10;99.90
18141;DHT22;9196;49.194;12.526;2023-12-29T12:00:41;10.10;99.90
18141;DHT22;9196;49.194;12.526;2023-12-29T12:03:26;10.10;99.90
18141;DHT22;9196;49.194;12.526;2023-12-29T12:05:54;10.00;99.90
18141;DHT22;9196;49.194;12.526;2023-12-29T12:08:33;10.10;99.90
18141;DHT22;9196;49.194;12.526;2023-12-29T12:14:05;10.20;99.90
18141;DHT22;9196;49.194;12.526;2023-12-29T12:16:48;10.30;99.90
18141;DHT22;9196;49.194;12.526;2023-12-29T12:19:16;10.30;99.90
18141;DHT22;9196;49.194;12.526;2023-12-29T12:21:46;10.30;99.90
18141;DHT22;9196;49.194;12.526;2023-12-29T12:24:13;10.20;99.90
18141;DHT22;9196;49.194;12.526;2023-12-29T12:26:41;10.20;99.90
18141;DHT22;9196;49.194;12.526;2023-12-29T12:29:08;10.20;99.90
18141;DHT22;9196;49.194;12.526;2023-12-29T12:31:35;10.20;99.90
18141;DHT22;9196;49.194;12.526;2023-12-29T12:34:02;10.40;99.90
18141;DHT22;9196;49.194;12.526;2023-12-29T12:36:32;10.40;99.90
18141;DHT22;9196;49.194;12.526;2023-12-29T12:38:59;10.60;99.90
18141;DHT22;9196;49.194;12.526;2023-12-29T12:41:26;10.70;99.90
18141;DHT22;9196;49.194;12.526;2023-12-29T12:44:01;10.90;99.90
18141;DHT22;9196;49.194;12.526;2023-12-29T12:46:34;11.00;99.90
18141;DHT22;9196;49.194;12.526;2023-12-29T12:49:01;11.00;99.90
18141;DHT22;9196;49.194;12.526;2023-12-29T12:51:29;11.00;99.90
18141;DHT22;9196;49.194;12.526;2023-12-29T12:53:59;11.10;99.90
18141;DHT22;9196;49.194;12.526;2023-12-29T12:56:26;11.10;99.90
18141;DHT22;9196;49.194;12.526;2023-12-29T12:58:55;11.00;99.90
18141;DHT22;9196;49.194;12.526;2023-12-29T13:01:23;10.80;99.90
18141;DHT22;9196;49.194;12.526;2023-12-29T13:03:50;10.80;99.90
18141;DHT22;9196;49.194;12.526;2023-12-29T13:06:17;10.80;99.90
18141;DHT22;9196;49.194;12.526;2023-12-29T13:08:48;10.70;99.90
18141;DHT22;9196;49.194;12.526;2023-12-29T13:11:20;10.60;99.90
18141;DHT22;9196;49.194;12.526;2023-12-29T13:13:51;10.50;99.90
18141;DHT22;9196;49.194;12.526;2023-12-29T13:16:29;10.50;99.90
18141;DHT22;9196;49.194;12.526;2023-12-29T13:18:56;10.50;99.90
18141;DHT22;9196;49.194;12.526;2023-12-29T13:21:22;10.50;99.90
18141;DHT22;9196;49.194;12.526;2023-12-29T13:23:49;10.50;99.90
18141;DHT22;9196;49.194;12.526;2023-12-29T13:26:19;10.50;99.90
18141;DHT22;9196;49.194;12.526;2023-12-29T13:28:48;10.40;99.90
18141;DHT22;9196;49.194;12.526;2023-12-29T13:31:16;10.40;99.90
18141;DHT22;9196;49.194;12.526;2023-12-29T13:33:48;10.40;99.90
18141;DHT22;9196;49.194;12.526;2023-12-29T13:36:23;10.30;99.90
18141;DHT22;9196;49.194;12.526;2023-12-29T13:38:53;10.30;99.90
18141;DHT22;9196;49.194;12.526;2023-12-29T13:41:23;10.30;99.90
18141;DHT22;9196;49.194;12.526;2023-12-29T13:43:52;10.20;99.90
18141;DHT22;9196;49.194;12.526;2023-12-29T13:46:21;10.30;99.90
18141;DHT22;9196;49.194;12.526;2023-12-29T13:48:48;10.20;99.90
18141;DHT22;9196;49.194;12.526;2023-12-29T13:51:16;10.20;99.90
18141;DHT22;9196;49.194;12.526;2023-12-29T13:53:43;10.10;99.90
18141;DHT22;9196;49.194;12.526;2023-12-29T13:56:11;10.10;99.90
18141;DHT22;9196;49.194;12.526;2023-12-29T13:58:39;10.10;99.90
18141;DHT22;9196;49.194;12.526;2023-12-29T14:01:08;10.10;99.90
18141;DHT22;9196;49.194;12.526;2023-12-29T14:03:43;10.10;99.90
18141;DHT22;9196;49.194;12.526;2023-12-29T14:06:20;10.10;99.90
18141;DHT22;9196;49.194;12.526;2023-12-29T14:08:47;10.20;99.90
18141;DHT22;9196;49.194;12.526;2023-12-29T14:11:14;10.20;99.90
18141;DHT22;9196;49.194;12.526;2023-12-29T14:13:44;10.30;99.90
18141;DHT22;9196;49.194;12.526;2023-12-29T14:16:11;10.40;99.90
18141;DHT22;9196;49.194;12.526;2023-12-29T14:18:53;10.40;99.90
18141;DHT22;9196;49.194;12.526;2023-12-29T14:21:21;10.50;99.90
18141;DHT22;9196;49.194;12.526;2023-12-29T14:23:58;10.40;99.90
18141;DHT22;9196;49.194;12.526;2023-12-29T14:26:25;10.50;99.90
18141;DHT22;9196;49.194;12.526;2023-12-29T14:29:01;10.60;99.90
18141;DHT22;9196;49.194;12.526;2023-12-29T14:31:29;10.50;99.90
18141;DHT22;9196;49.194;12.526;2023-12-29T14:33:58;10.50;99.90
18141;DHT22;9196;49.194;12.526;2023-12-29T14:36:25;10.50;99.90
18141;DHT22;9196;49.194;12.526;2023-12-29T14:38:52;10.40;99.90
18141;DHT22;9196;49.194;12.526;2023-12-29T14:41:18;10.40;99.90
18141;DHT22;9196;49.194;12.526;2023-12-29T14:43:45;10.30;99.90
18141;DHT22;9196;49.194;12.526;2023-12-29T14:46:13;10.30;99.90
18141;DHT22;9196;49.194;12.526;2023-12-29T14:48:40;10.20;99.90
18141;DHT22;9196;49.194;12.526;2023-12-29T14:51:07;10.20;99.90
18141;DHT22;9196;49.194;12.526;2023-12-29T14:53:34;10.30;99.90
18141;DHT22;9196;49.194;12.526;2023-12-29T14:56:01;10.20;99.90
18141;DHT22;9196;49.194;12.526;2023-12-29T14:58:28;10.30;99.90
18141;DHT22;9196;49.194;12.526;2023-12-29T15:00:54;10.30;99.90
18141;DHT22;9196;49.194;12.526;2023-12-29T15:03:23;10.30;99.90
18141;DHT22;9196;49.194;12.526;2023-12-29T15:05:50;10.20;99.90
18141;DHT22;9196;49.194;12.526;2023-12-29T15:08:17;10.20;99.90
18141;DHT22;9196;49.194;12.526;2023-12-29T15:10:44;10.10;99.90
18141;DHT22;9196;49.194;12.526;2023-12-29T15:13:11;10.10;99.90
18141;DHT22;9196;49.194;12.526;2023-12-29T15:15:37;10.10;99.90
18141;DHT22;9196;49.194;12.526;2023-12-29T15:18:05;10.10;99.90
18141;DHT22;9196;49.194;12.526;2023-12-29T15:20:33;10.10;99.90
18141;DHT22;9196;49.194;12.526;2023-12-29T15:23:00;10.10;99.90
18141;DHT22;9196;49.194;12.526;2023-12-29T15:25:28;10.00;99.90
18141;DHT22;9196;49.194;12.526;2023-12-29T15:27:55;10.00;99.90
18141;DHT22;9196;49.194;12.526;2023-12-29T15:30:21;9.90;99.90
18141;DHT22;9196;49.194;12.526;2023-12-29T15:32:48;10.00;99.90
18141;DHT22;9196;49.194;12.526;2023-12-29T15:35:15;10.00;99.90
18141;DHT22;9196;49.194;12.526;2023-12-29T15:37:43;9.90;99.90
18141;DHT22;9196;49.194;12.526;2023-12-29T15:40:11;9.90;99.90
18141;DHT22;9196;49.194;12.526;2023-12-29T15:42:37;9.90;99.90
18141;DHT22;9196;49.194;12.526;2023-12-29T15:45:05;9.90;99.90
18141;DHT22;9196;49.194;12.526;2023-12-29T15:47:32;9.90;99.90
18141;DHT22;9196;49.194;12.526;2023-12-29T15:49:59;9.90;99.90